sensor_id;sensor_type;location;lat;lon;timestamp;P1;durP1;ratioP1;P2;durP2;ratioP2
41623;SDS011;27319;50.306;18.926;2023-05-29T00:01:00;11.07;;;4.55;;
41623;SDS011;27319;50.306;18.926;2023-05-29T00:05:01;11.85;;;4.95;;
41623;SDS011;27319;50.306;18.926;2023-05-29T00:08:05;7.70;;;5.43;;
41623;SDS011;27319;50.306;18.926;2023-05-29T00:11:07;10.80;;;5.55;;
41623;SDS011;27319;50.306;18.926;2023-05-29T00:15:08;12.32;;;5.22;;
41623;SDS011;27319;50.306;18.926;2023-05-29T00:19:08;16.45;;;6.35;;
41623;SDS011;27319;50.306;18.926;2023-05-29T00:23:09;12.18;;;6.88;;
41623;SDS011;27319;50.306;18.926;2023-05-29T00:26:33;16.70;;;7.85;;
41623;SDS011;27319;50.306;18.926;2023-05-29T00:30:16;17.63;;;6.53;;
41623;SDS011;27319;50.306;18.926;2023-05-29T00:33:17;11.70;;;6.70;;
41623;SDS011;27319;50.306;18.926;2023-05-29T00:36:19;13.50;;;6.53;;
41623;SDS011;27319;50.306;18.926;2023-05-29T00:39:19;11.07;;;6.10;;
41623;SDS011;27319;50.306;18.926;2023-05-29T00:43:20;13.45;;;6.28;;
41623;SDS011;27319;50.306;18.926;2023-05-29T00:46:28;12.63;;;5.32;;
41623;SDS011;27319;50.306;18.926;2023-05-29T00:50:29;9.95;;;5.03;;
41623;SDS011;27319;50.306;18.926;2023-05-29T00:54:31;10.77;;;5.68;;
41623;SDS011;27319;50.306;18.926;2023-05-29T00:58:32;10.25;;;5.10;;
41623;SDS011;27319;50.306;18.926;2023-05-29T01:02:34;7.65;;;4.82;;
41623;SDS011;27319;50.306;18.926;2023-05-29T01:05:36;9.27;;;5.18;;
41623;SDS011;27319;50.306;18.926;2023-05-29T01:09:37;10.70;;;5.30;;
41623;SDS011;27319;50.306;18.926;2023-05-29T01:13:38;9.68;;;5.13;;
41623;SDS011;27319;50.306;18.926;2023-05-29T01:21:59;11.90;;;5.45;;
41623;SDS011;27319;50.306;18.926;2023-05-29T01:25:49;11.77;;;4.70;;
41623;SDS011;27319;50.306;18.926;2023-05-29T01:29:32;7.30;;;4.80;;
41623;SDS011;27319;50.306;18.926;2023-05-29T01:33:32;9.20;;;5.10;;
41623;SDS011;27319;50.306;18.926;2023-05-29T01:37:33;7.70;;;4.15;;
41623;SDS011;27319;50.306;18.926;2023-05-29T01:41:29;12.40;;;4.85;;
41623;SDS011;27319;50.306;18.926;2023-05-29T01:45:30;9.38;;;5.30;;
41623;SDS011;27319;50.306;18.926;2023-05-29T01:49:30;8.98;;;5.05;;
41623;SDS011;27319;50.306;18.926;2023-05-29T01:53:31;10.75;;;4.88;;
41623;SDS011;27319;50.306;18.926;2023-05-29T01:57:32;8.65;;;4.90;;
41623;SDS011;27319;50.306;18.926;2023-05-29T02:01:33;10.65;;;4.68;;
41623;SDS011;27319;50.306;18.926;2023-05-29T02:05:33;8.80;;;4.25;;
41623;SDS011;27319;50.306;18.926;2023-05-29T02:09:36;6.78;;;4.13;;
41623;SDS011;27319;50.306;18.926;2023-05-29T02:13:37;8.70;;;4.63;;
41623;SDS011;27319;50.306;18.926;2023-05-29T02:17:26;11.85;;;5.32;;
41623;SDS011;27319;50.306;18.926;2023-05-29T02:20:27;7.45;;;4.80;;
41623;SDS011;27319;50.306;18.926;2023-05-29T02:23:29;9.07;;;4.68;;
41623;SDS011;27319;50.306;18.926;2023-05-29T02:26:31;9.88;;;4.95;;
41623;SDS011;27319;50.306;18.926;2023-05-29T02:30:31;7.45;;;4.45;;
41623;SDS011;27319;50.306;18.926;2023-05-29T02:34:31;8.05;;;4.43;;
41623;SDS011;27319;50.306;18.926;2023-05-29T02:37:32;8.93;;;4.57;;
41623;SDS011;27319;50.306;18.926;2023-05-29T02:40:33;7.65;;;4.68;;
41623;SDS011;27319;50.306;18.926;2023-05-29T02:43:34;9.45;;;4.85;;
41623;SDS011;27319;50.306;18.926;2023-05-29T02:46:44;6.85;;;4.60;;
41623;SDS011;27319;50.306;18.926;2023-05-29T02:49:45;8.13;;;4.53;;
41623;SDS011;27319;50.306;18.926;2023-05-29T02:52:46;8.18;;;4.65;;
41623;SDS011;27319;50.306;18.926;2023-05-29T02:55:48;9.90;;;4.78;;
41623;SDS011;27319;50.306;18.926;2023-05-29T02:59:48;6.78;;;3.85;;
41623;SDS011;27319;50.306;18.926;2023-05-29T03:03:49;6.97;;;4.30;;
41623;SDS011;27319;50.306;18.926;2023-05-29T03:06:50;7.07;;;4.50;;
41623;SDS011;27319;50.306;18.926;2023-05-29T03:09:53;6.82;;;3.97;;
41623;SDS011;27319;50.306;18.926;2023-05-29T03:12:55;8.63;;;3.90;;
41623;SDS011;27319;50.306;18.926;2023-05-29T03:15:59;8.98;;;4.95;;
41623;SDS011;27319;50.306;18.926;2023-05-29T03:19:00;10.38;;;4.38;;
41623;SDS011;27319;50.306;18.926;2023-05-29T03:22:01;8.63;;;4.68;;
41623;SDS011;27319;50.306;18.926;2023-05-29T03:26:02;9.10;;;4.78;;
41623;SDS011;27319;50.306;18.926;2023-05-29T03:29:04;7.47;;;3.92;;
41623;SDS011;27319;50.306;18.926;2023-05-29T03:33:04;7.18;;;4.40;;
41623;SDS011;27319;50.306;18.926;2023-05-29T03:37:05;7.22;;;5.03;;
41623;SDS011;27319;50.306;18.926;2023-05-29T03:41:06;19.25;;;4.70;;
41623;SDS011;27319;50.306;18.926;2023-05-29T03:44:06;9.45;;;4.63;;
41623;SDS011;27319;50.306;18.926;2023-05-29T03:47:07;9.25;;;4.10;;
41623;SDS011;27319;50.306;18.926;2023-05-29T03:51:08;9.50;;;4.72;;
41623;SDS011;27319;50.306;18.926;2023-05-29T03:55:09;10.93;;;4.70;;
41623;SDS011;27319;50.306;18.926;2023-05-29T03:59:10;10.00;;;4.80;;
41623;SDS011;27319;50.306;18.926;2023-05-29T04:03:13;8.18;;;4.35;;
41623;SDS011;27319;50.306;18.926;2023-05-29T04:07:14;11.00;;;4.95;;
41623;SDS011;27319;50.306;18.926;2023-05-29T04:10:17;9.93;;;4.28;;
41623;SDS011;27319;50.306;18.926;2023-05-29T04:14:18;7.03;;;4.63;;
41623;SDS011;27319;50.306;18.926;2023-05-29T04:17:20;13.57;;;5.43;;
41623;SDS011;27319;50.306;18.926;2023-05-29T04:20:21;10.52;;;5.35;;
41623;SDS011;27319;50.306;18.926;2023-05-29T04:24:22;19.17;;;5.45;;
41623;SDS011;27319;50.306;18.926;2023-05-29T04:28:23;18.23;;;5.82;;
41623;SDS011;27319;50.306;18.926;2023-05-29T04:32:24;16.73;;;6.07;;
41623;SDS011;27319;50.306;18.926;2023-05-29T04:35:24;17.35;;;5.55;;
41623;SDS011;27319;50.306;18.926;2023-05-29T04:39:25;16.65;;;5.72;;
41623;SDS011;27319;50.306;18.926;2023-05-29T04:43:29;25.23;;;6.03;;
41623;SDS011;27319;50.306;18.926;2023-05-29T04:47:30;21.27;;;6.25;;
41623;SDS011;27319;50.306;18.926;2023-05-29T04:51:30;22.15;;;6.50;;
41623;SDS011;27319;50.306;18.926;2023-05-29T04:55:34;26.17;;;6.30;;
41623;SDS011;27319;50.306;18.926;2023-05-29T04:58:36;21.85;;;5.97;;
41623;SDS011;27319;50.306;18.926;2023-05-29T05:02:37;23.95;;;6.47;;
41623;SDS011;27319;50.306;18.926;2023-05-29T05:05:58;40.22;;;7.68;;
41623;SDS011;27319;50.306;18.926;2023-05-29T05:09:59;24.40;;;6.28;;
41623;SDS011;27319;50.306;18.926;2023-05-29T05:14:00;34.50;;;6.22;;
41623;SDS011;27319;50.306;18.926;2023-05-29T05:18:00;39.22;;;6.60;;
41623;SDS011;27319;50.306;18.926;2023-05-29T05:21:58;26.35;;;6.93;;
41623;SDS011;27319;50.306;18.926;2023-05-29T05:25:58;30.48;;;6.88;;
41623;SDS011;27319;50.306;18.926;2023-05-29T05:29:00;36.05;;;7.35;;
41623;SDS011;27319;50.306;18.926;2023-05-29T05:32:01;31.17;;;6.25;;
41623;SDS011;27319;50.306;18.926;2023-05-29T05:36:02;16.85;;;5.20;;
41623;SDS011;27319;50.306;18.926;2023-05-29T05:39:38;20.80;;;5.57;;
41623;SDS011;27319;50.306;18.926;2023-05-29T05:43:39;39.20;;;6.93;;
41623;SDS011;27319;50.306;18.926;2023-05-29T05:47:40;43.10;;;6.93;;
41623;SDS011;27319;50.306;18.926;2023-05-29T05:51:40;21.98;;;6.65;;
41623;SDS011;27319;50.306;18.926;2023-05-29T05:55:41;29.02;;;7.60;;
41623;SDS011;27319;50.306;18.926;2023-05-29T05:59:42;35.63;;;6.10;;
41623;SDS011;27319;50.306;18.926;2023-05-29T06:03:43;27.48;;;7.32;;
41623;SDS011;27319;50.306;18.926;2023-05-29T06:06:44;29.77;;;7.28;;
41623;SDS011;27319;50.306;18.926;2023-05-29T06:10:44;41.67;;;8.50;;
41623;SDS011;27319;50.306;18.926;2023-05-29T06:14:45;33.63;;;8.25;;
41623;SDS011;27319;50.306;18.926;2023-05-29T06:18:46;38.03;;;9.35;;
41623;SDS011;27319;50.306;18.926;2023-05-29T06:22:47;36.05;;;9.75;;
41623;SDS011;27319;50.306;18.926;2023-05-29T06:26:48;32.08;;;8.13;;
41623;SDS011;27319;50.306;18.926;2023-05-29T06:30:48;41.80;;;8.90;;
41623;SDS011;27319;50.306;18.926;2023-05-29T06:34:49;28.98;;;7.88;;
41623;SDS011;27319;50.306;18.926;2023-05-29T06:38:50;27.95;;;6.57;;
41623;SDS011;27319;50.306;18.926;2023-05-29T06:42:51;18.17;;;6.63;;
41623;SDS011;27319;50.306;18.926;2023-05-29T06:46:51;20.17;;;6.30;;
41623;SDS011;27319;50.306;18.926;2023-05-29T06:50:52;11.52;;;4.63;;
41623;SDS011;27319;50.306;18.926;2023-05-29T06:54:53;15.82;;;4.30;;
41623;SDS011;27319;50.306;18.926;2023-05-29T06:58:54;22.30;;;4.53;;
41623;SDS011;27319;50.306;18.926;2023-05-29T07:02:55;11.77;;;4.15;;
41623;SDS011;27319;50.306;18.926;2023-05-29T07:05:56;21.15;;;4.20;;
41623;SDS011;27319;50.306;18.926;2023-05-29T07:08:57;20.17;;;4.72;;
41623;SDS011;27319;50.306;18.926;2023-05-29T07:11:58;20.58;;;4.32;;
41623;SDS011;27319;50.306;18.926;2023-05-29T07:15:59;16.52;;;3.90;;
41623;SDS011;27319;50.306;18.926;2023-05-29T07:19:59;19.05;;;4.50;;
41623;SDS011;27319;50.306;18.926;2023-05-29T07:24:00;13.35;;;3.78;;
41623;SDS011;27319;50.306;18.926;2023-05-29T07:28:01;12.25;;;3.20;;
41623;SDS011;27319;50.306;18.926;2023-05-29T07:32:02;7.25;;;2.50;;
41623;SDS011;27319;50.306;18.926;2023-05-29T07:36:03;22.25;;;4.22;;
41623;SDS011;27319;50.306;18.926;2023-05-29T07:40:04;25.13;;;5.15;;
41623;SDS011;27319;50.306;18.926;2023-05-29T07:44:04;19.80;;;3.70;;
41623;SDS011;27319;50.306;18.926;2023-05-29T07:48:05;11.00;;;2.78;;
41623;SDS011;27319;50.306;18.926;2023-05-29T07:52:06;5.75;;;2.90;;
41623;SDS011;27319;50.306;18.926;2023-05-29T07:56:07;7.18;;;2.85;;
41623;SDS011;27319;50.306;18.926;2023-05-29T08:00:07;11.20;;;2.65;;
41623;SDS011;27319;50.306;18.926;2023-05-29T08:03:59;15.30;;;3.53;;
41623;SDS011;27319;50.306;18.926;2023-05-29T08:07:01;12.02;;;3.28;;
41623;SDS011;27319;50.306;18.926;2023-05-29T08:10:07;12.20;;;2.90;;
41623;SDS011;27319;50.306;18.926;2023-05-29T08:13:08;10.05;;;2.88;;
41623;SDS011;27319;50.306;18.926;2023-05-29T08:16:09;6.22;;;2.22;;
41623;SDS011;27319;50.306;18.926;2023-05-29T08:20:12;7.75;;;2.38;;
41623;SDS011;27319;50.306;18.926;2023-05-29T08:24:13;7.72;;;2.38;;
41623;SDS011;27319;50.306;18.926;2023-05-29T08:28:14;5.45;;;2.30;;
41623;SDS011;27319;50.306;18.926;2023-05-29T08:32:15;9.75;;;2.47;;
41623;SDS011;27319;50.306;18.926;2023-05-29T08:36:15;8.23;;;2.65;;
41623;SDS011;27319;50.306;18.926;2023-05-29T08:40:16;11.40;;;6.55;;
41623;SDS011;27319;50.306;18.926;2023-05-29T08:43:20;5.82;;;2.20;;
41623;SDS011;27319;50.306;18.926;2023-05-29T08:47:18;10.55;;;3.40;;
41623;SDS011;27319;50.306;18.926;2023-05-29T08:51:19;9.10;;;2.92;;
41623;SDS011;27319;50.306;18.926;2023-05-29T08:55:19;8.25;;;2.65;;
41623;SDS011;27319;50.306;18.926;2023-05-29T08:59:20;5.13;;;2.30;;
41623;SDS011;27319;50.306;18.926;2023-05-29T09:03:31;12.15;;;2.75;;
41623;SDS011;27319;50.306;18.926;2023-05-29T09:06:32;12.65;;;2.20;;
41623;SDS011;27319;50.306;18.926;2023-05-29T09:10:51;4.30;;;2.25;;
41623;SDS011;27319;50.306;18.926;2023-05-29T09:14:54;5.05;;;2.53;;
41623;SDS011;27319;50.306;18.926;2023-05-29T09:19:04;5.00;;;2.55;;
41623;SDS011;27319;50.306;18.926;2023-05-29T09:23:05;4.80;;;2.13;;
41623;SDS011;27319;50.306;18.926;2023-05-29T09:27:06;6.32;;;2.50;;
41623;SDS011;27319;50.306;18.926;2023-05-29T09:31:13;6.95;;;2.47;;
41623;SDS011;27319;50.306;18.926;2023-05-29T09:34:15;6.55;;;2.90;;
41623;SDS011;27319;50.306;18.926;2023-05-29T09:37:16;12.95;;;2.75;;
41623;SDS011;27319;50.306;18.926;2023-05-29T09:40:41;5.32;;;2.42;;
41623;SDS011;27319;50.306;18.926;2023-05-29T09:43:46;9.00;;;3.30;;
41623;SDS011;27319;50.306;18.926;2023-05-29T09:47:46;8.77;;;4.45;;
41623;SDS011;27319;50.306;18.926;2023-05-29T09:51:53;12.82;;;3.08;;
41623;SDS011;27319;50.306;18.926;2023-05-29T09:55:55;10.38;;;3.20;;
41623;SDS011;27319;50.306;18.926;2023-05-29T09:58:56;3.72;;;2.13;;
41623;SDS011;27319;50.306;18.926;2023-05-29T10:02:03;6.13;;;2.83;;
41623;SDS011;27319;50.306;18.926;2023-05-29T10:06:01;10.70;;;3.30;;
41623;SDS011;27319;50.306;18.926;2023-05-29T10:09:08;7.35;;;2.58;;
41623;SDS011;27319;50.306;18.926;2023-05-29T10:12:14;4.22;;;2.30;;
41623;SDS011;27319;50.306;18.926;2023-05-29T10:15:44;9.23;;;2.58;;
41623;SDS011;27319;50.306;18.926;2023-05-29T10:18:55;10.30;;;2.45;;
41623;SDS011;27319;50.306;18.926;2023-05-29T10:22:56;7.95;;;2.50;;
41623;SDS011;27319;50.306;18.926;2023-05-29T10:26:57;5.78;;;2.58;;
41623;SDS011;27319;50.306;18.926;2023-05-29T10:31:05;5.65;;;2.58;;
41623;SDS011;27319;50.306;18.926;2023-05-29T10:35:16;7.88;;;2.80;;
41623;SDS011;27319;50.306;18.926;2023-05-29T10:39:15;14.00;;;3.58;;
41623;SDS011;27319;50.306;18.926;2023-05-29T10:47:12;11.35;;;3.35;;
41623;SDS011;27319;50.306;18.926;2023-05-29T10:51:26;9.52;;;2.72;;
41623;SDS011;27319;50.306;18.926;2023-05-29T10:55:39;9.30;;;2.80;;
41623;SDS011;27319;50.306;18.926;2023-05-29T10:59:39;6.47;;;3.10;;
41623;SDS011;27319;50.306;18.926;2023-05-29T11:03:40;7.15;;;3.13;;
41623;SDS011;27319;50.306;18.926;2023-05-29T11:06:41;7.28;;;3.60;;
41623;SDS011;27319;50.306;18.926;2023-05-29T11:14:03;6.53;;;2.58;;
41623;SDS011;27319;50.306;18.926;2023-05-29T11:18:06;5.50;;;2.97;;
41623;SDS011;27319;50.306;18.926;2023-05-29T11:22:08;5.78;;;3.15;;
41623;SDS011;27319;50.306;18.926;2023-05-29T11:26:08;9.70;;;3.42;;
41623;SDS011;27319;50.306;18.926;2023-05-29T11:30:11;5.43;;;2.55;;
41623;SDS011;27319;50.306;18.926;2023-05-29T11:34:14;7.30;;;2.90;;
41623;SDS011;27319;50.306;18.926;2023-05-29T11:38:12;6.38;;;2.80;;
41623;SDS011;27319;50.306;18.926;2023-05-29T11:42:13;3.83;;;2.75;;
41623;SDS011;27319;50.306;18.926;2023-05-29T11:46:17;5.10;;;2.90;;
41623;SDS011;27319;50.306;18.926;2023-05-29T11:50:22;7.05;;;3.00;;
41623;SDS011;27319;50.306;18.926;2023-05-29T11:54:22;6.13;;;2.58;;
41623;SDS011;27319;50.306;18.926;2023-05-29T11:58:22;6.72;;;2.92;;
41623;SDS011;27319;50.306;18.926;2023-05-29T12:02:23;6.82;;;2.90;;
41623;SDS011;27319;50.306;18.926;2023-05-29T12:06:04;9.50;;;3.05;;
41623;SDS011;27319;50.306;18.926;2023-05-29T12:10:14;8.68;;;3.10;;
41623;SDS011;27319;50.306;18.926;2023-05-29T12:14:17;8.30;;;2.70;;
41623;SDS011;27319;50.306;18.926;2023-05-29T12:18:18;9.45;;;2.78;;
41623;SDS011;27319;50.306;18.926;2023-05-29T12:22:29;9.38;;;3.30;;
41623;SDS011;27319;50.306;18.926;2023-05-29T12:26:21;9.02;;;3.00;;
41623;SDS011;27319;50.306;18.926;2023-05-29T12:30:05;5.97;;;2.83;;
41623;SDS011;27319;50.306;18.926;2023-05-29T12:34:10;7.47;;;3.10;;
41623;SDS011;27319;50.306;18.926;2023-05-29T12:38:11;5.22;;;2.70;;
41623;SDS011;27319;50.306;18.926;2023-05-29T12:41:22;6.63;;;3.00;;
41623;SDS011;27319;50.306;18.926;2023-05-29T12:44:23;7.82;;;2.78;;
41623;SDS011;27319;50.306;18.926;2023-05-29T12:47:24;13.25;;;3.47;;
41623;SDS011;27319;50.306;18.926;2023-05-29T12:50:26;10.80;;;3.40;;
41623;SDS011;27319;50.306;18.926;2023-05-29T12:53:28;10.80;;;3.25;;
41623;SDS011;27319;50.306;18.926;2023-05-29T12:56:30;5.75;;;2.58;;
41623;SDS011;27319;50.306;18.926;2023-05-29T13:00:32;9.65;;;3.30;;
41623;SDS011;27319;50.306;18.926;2023-05-29T13:04:02;5.43;;;3.40;;
41623;SDS011;27319;50.306;18.926;2023-05-29T13:08:03;9.43;;;2.83;;
41623;SDS011;27319;50.306;18.926;2023-05-29T13:12:04;6.15;;;2.63;;
41623;SDS011;27319;50.306;18.926;2023-05-29T13:16:04;5.53;;;3.20;;
41623;SDS011;27319;50.306;18.926;2023-05-29T13:20:14;4.93;;;2.85;;
41623;SDS011;27319;50.306;18.926;2023-05-29T13:24:08;4.90;;;2.75;;
41623;SDS011;27319;50.306;18.926;2023-05-29T13:28:09;7.20;;;2.67;;
41623;SDS011;27319;50.306;18.926;2023-05-29T13:32:09;4.68;;;2.65;;
41623;SDS011;27319;50.306;18.926;2023-05-29T13:36:10;8.15;;;2.95;;
41623;SDS011;27319;50.306;18.926;2023-05-29T13:40:11;9.02;;;3.22;;
41623;SDS011;27319;50.306;18.926;2023-05-29T13:44:12;9.90;;;2.95;;
41623;SDS011;27319;50.306;18.926;2023-05-29T13:48:13;5.68;;;3.20;;
41623;SDS011;27319;50.306;18.926;2023-05-29T13:52:14;6.53;;;2.83;;
41623;SDS011;27319;50.306;18.926;2023-05-29T13:56:14;8.55;;;2.65;;
41623;SDS011;27319;50.306;18.926;2023-05-29T14:00:15;8.02;;;2.85;;
41623;SDS011;27319;50.306;18.926;2023-05-29T14:03:59;11.25;;;3.50;;
41623;SDS011;27319;50.306;18.926;2023-05-29T14:07:01;5.97;;;2.97;;
41623;SDS011;27319;50.306;18.926;2023-05-29T14:10:02;4.22;;;2.60;;
41623;SDS011;27319;50.306;18.926;2023-05-29T14:13:04;6.97;;;2.83;;
41623;SDS011;27319;50.306;18.926;2023-05-29T14:16:06;7.38;;;2.95;;
41623;SDS011;27319;50.306;18.926;2023-05-29T14:19:06;8.85;;;2.85;;
41623;SDS011;27319;50.306;18.926;2023-05-29T14:23:07;9.20;;;2.50;;
41623;SDS011;27319;50.306;18.926;2023-05-29T14:27:08;7.80;;;2.45;;
41623;SDS011;27319;50.306;18.926;2023-05-29T14:31:09;7.90;;;2.70;;
41623;SDS011;27319;50.306;18.926;2023-05-29T14:35:10;7.78;;;3.05;;
41623;SDS011;27319;50.306;18.926;2023-05-29T14:39:11;7.55;;;2.95;;
41623;SDS011;27319;50.306;18.926;2023-05-29T14:43:11;7.78;;;2.60;;
41623;SDS011;27319;50.306;18.926;2023-05-29T14:47:12;5.85;;;2.58;;
41623;SDS011;27319;50.306;18.926;2023-05-29T14:51:13;4.97;;;2.85;;
41623;SDS011;27319;50.306;18.926;2023-05-29T14:55:14;5.28;;;3.13;;
41623;SDS011;27319;50.306;18.926;2023-05-29T14:59:15;9.18;;;2.35;;
41623;SDS011;27319;50.306;18.926;2023-05-29T15:03:16;10.77;;;3.13;;
41623;SDS011;27319;50.306;18.926;2023-05-29T15:07:16;8.88;;;2.97;;
41623;SDS011;27319;50.306;18.926;2023-05-29T15:11:17;7.40;;;3.33;;
41623;SDS011;27319;50.306;18.926;2023-05-29T15:15:18;10.07;;;3.50;;
41623;SDS011;27319;50.306;18.926;2023-05-29T15:19:22;9.27;;;2.90;;
41623;SDS011;27319;50.306;18.926;2023-05-29T15:23:23;8.88;;;2.85;;
41623;SDS011;27319;50.306;18.926;2023-05-29T15:27:24;7.03;;;3.08;;
41623;SDS011;27319;50.306;18.926;2023-05-29T15:31:24;5.00;;;3.38;;
41623;SDS011;27319;50.306;18.926;2023-05-29T15:35:25;8.65;;;3.22;;
41623;SDS011;27319;50.306;18.926;2023-05-29T15:39:26;11.05;;;3.08;;
41623;SDS011;27319;50.306;18.926;2023-05-29T15:43:27;6.07;;;3.10;;
41623;SDS011;27319;50.306;18.926;2023-05-29T15:47:27;8.77;;;4.15;;
41623;SDS011;27319;50.306;18.926;2023-05-29T15:51:28;6.40;;;3.97;;
41623;SDS011;27319;50.306;18.926;2023-05-29T15:55:29;5.38;;;3.20;;
41623;SDS011;27319;50.306;18.926;2023-05-29T15:59:30;4.75;;;2.75;;
41623;SDS011;27319;50.306;18.926;2023-05-29T16:03:31;7.07;;;2.95;;
41623;SDS011;27319;50.306;18.926;2023-05-29T16:06:31;6.30;;;3.00;;
41623;SDS011;27319;50.306;18.926;2023-05-29T16:09:33;4.05;;;2.65;;
41623;SDS011;27319;50.306;18.926;2023-05-29T16:12:34;7.88;;;2.97;;
41623;SDS011;27319;50.306;18.926;2023-05-29T16:16:36;7.55;;;2.80;;
41623;SDS011;27319;50.306;18.926;2023-05-29T16:20:36;4.30;;;2.42;;
41623;SDS011;27319;50.306;18.926;2023-05-29T16:24:36;12.07;;;2.97;;
41623;SDS011;27319;50.306;18.926;2023-05-29T16:28:37;11.32;;;2.97;;
41623;SDS011;27319;50.306;18.926;2023-05-29T16:32:38;11.50;;;2.65;;
41623;SDS011;27319;50.306;18.926;2023-05-29T16:36:39;5.65;;;2.45;;
41623;SDS011;27319;50.306;18.926;2023-05-29T16:40:40;5.88;;;2.60;;
41623;SDS011;27319;50.306;18.926;2023-05-29T16:44:41;6.50;;;2.80;;
41623;SDS011;27319;50.306;18.926;2023-05-29T16:48:44;13.38;;;3.30;;
41623;SDS011;27319;50.306;18.926;2023-05-29T16:52:47;6.38;;;2.95;;
41623;SDS011;27319;50.306;18.926;2023-05-29T16:56:47;5.22;;;2.63;;
41623;SDS011;27319;50.306;18.926;2023-05-29T17:00:48;7.30;;;3.00;;
41623;SDS011;27319;50.306;18.926;2023-05-29T17:04:09;7.55;;;2.65;;
41623;SDS011;27319;50.306;18.926;2023-05-29T17:07:12;6.93;;;2.95;;
41623;SDS011;27319;50.306;18.926;2023-05-29T17:10:13;6.70;;;3.05;;
41623;SDS011;27319;50.306;18.926;2023-05-29T17:14:14;8.23;;;2.88;;
41623;SDS011;27319;50.306;18.926;2023-05-29T17:18:15;6.63;;;3.00;;
41623;SDS011;27319;50.306;18.926;2023-05-29T17:22:16;8.75;;;2.85;;
41623;SDS011;27319;50.306;18.926;2023-05-29T17:26:17;7.75;;;2.80;;
41623;SDS011;27319;50.306;18.926;2023-05-29T17:30:18;9.35;;;2.97;;
41623;SDS011;27319;50.306;18.926;2023-05-29T17:34:19;7.05;;;2.83;;
41623;SDS011;27319;50.306;18.926;2023-05-29T17:38:19;5.88;;;2.58;;
41623;SDS011;27319;50.306;18.926;2023-05-29T17:42:20;7.97;;;3.22;;
41623;SDS011;27319;50.306;18.926;2023-05-29T17:46:21;10.70;;;5.82;;
41623;SDS011;27319;50.306;18.926;2023-05-29T17:50:22;15.77;;;8.13;;
41623;SDS011;27319;50.306;18.926;2023-05-29T17:54:23;16.48;;;9.23;;
41623;SDS011;27319;50.306;18.926;2023-05-29T17:58:24;11.45;;;4.53;;
41623;SDS011;27319;50.306;18.926;2023-05-29T18:02:25;11.73;;;3.28;;
41623;SDS011;27319;50.306;18.926;2023-05-29T18:05:26;4.18;;;3.05;;
41623;SDS011;27319;50.306;18.926;2023-05-29T18:08:28;7.75;;;4.28;;
41623;SDS011;27319;50.306;18.926;2023-05-29T18:11:29;11.20;;;5.60;;
41623;SDS011;27319;50.306;18.926;2023-05-29T18:14:31;10.75;;;6.28;;
41623;SDS011;27319;50.306;18.926;2023-05-29T18:17:32;9.90;;;4.85;;
41623;SDS011;27319;50.306;18.926;2023-05-29T18:21:33;9.00;;;3.10;;
41623;SDS011;27319;50.306;18.926;2023-05-29T18:25:33;9.43;;;3.33;;
41623;SDS011;27319;50.306;18.926;2023-05-29T18:29:34;7.15;;;3.13;;
41623;SDS011;27319;50.306;18.926;2023-05-29T18:33:35;9.23;;;3.47;;
41623;SDS011;27319;50.306;18.926;2023-05-29T18:37:36;10.95;;;3.53;;
41623;SDS011;27319;50.306;18.926;2023-05-29T18:41:36;6.45;;;2.88;;
41623;SDS011;27319;50.306;18.926;2023-05-29T18:45:37;4.50;;;3.22;;
41623;SDS011;27319;50.306;18.926;2023-05-29T18:48:38;12.27;;;3.45;;
41623;SDS011;27319;50.306;18.926;2023-05-29T18:52:39;5.85;;;3.30;;
41623;SDS011;27319;50.306;18.926;2023-05-29T18:56:40;5.75;;;3.13;;
41623;SDS011;27319;50.306;18.926;2023-05-29T19:00:25;12.25;;;3.30;;
41623;SDS011;27319;50.306;18.926;2023-05-29T19:04:03;4.68;;;3.15;;
41623;SDS011;27319;50.306;18.926;2023-05-29T19:07:03;10.52;;;3.42;;
41623;SDS011;27319;50.306;18.926;2023-05-29T19:11:04;10.15;;;3.42;;
41623;SDS011;27319;50.306;18.926;2023-05-29T19:15:05;12.55;;;3.50;;
41623;SDS011;27319;50.306;18.926;2023-05-29T19:18:08;14.57;;;3.80;;
41623;SDS011;27319;50.306;18.926;2023-05-29T19:22:10;12.30;;;3.38;;
41623;SDS011;27319;50.306;18.926;2023-05-29T19:25:28;9.20;;;3.35;;
41623;SDS011;27319;50.306;18.926;2023-05-29T19:29:29;10.32;;;3.75;;
41623;SDS011;27319;50.306;18.926;2023-05-29T19:33:30;7.75;;;3.45;;
41623;SDS011;27319;50.306;18.926;2023-05-29T19:36:32;7.80;;;4.03;;
41623;SDS011;27319;50.306;18.926;2023-05-29T19:40:13;15.73;;;4.15;;
41623;SDS011;27319;50.306;18.926;2023-05-29T19:43:15;10.40;;;3.50;;
41623;SDS011;27319;50.306;18.926;2023-05-29T19:47:15;7.93;;;3.53;;
41623;SDS011;27319;50.306;18.926;2023-05-29T19:51:15;8.65;;;3.17;;
41623;SDS011;27319;50.306;18.926;2023-05-29T19:55:19;9.73;;;3.85;;
41623;SDS011;27319;50.306;18.926;2023-05-29T19:59:20;8.68;;;4.00;;
41623;SDS011;27319;50.306;18.926;2023-05-29T20:02:21;11.27;;;3.90;;
41623;SDS011;27319;50.306;18.926;2023-05-29T20:05:23;6.65;;;3.72;;
41623;SDS011;27319;50.306;18.926;2023-05-29T20:08:24;12.43;;;4.15;;
41623;SDS011;27319;50.306;18.926;2023-05-29T20:11:26;8.65;;;3.67;;
41623;SDS011;27319;50.306;18.926;2023-05-29T20:14:27;7.72;;;3.70;;
41623;SDS011;27319;50.306;18.926;2023-05-29T20:17:29;10.38;;;3.90;;
41623;SDS011;27319;50.306;18.926;2023-05-29T20:20:30;6.72;;;3.70;;
41623;SDS011;27319;50.306;18.926;2023-05-29T20:23:34;6.93;;;3.78;;
41623;SDS011;27319;50.306;18.926;2023-05-29T20:26:35;6.03;;;3.63;;
41623;SDS011;27319;50.306;18.926;2023-05-29T20:29:36;9.57;;;4.10;;
41623;SDS011;27319;50.306;18.926;2023-05-29T20:32:37;7.35;;;4.00;;
41623;SDS011;27319;50.306;18.926;2023-05-29T20:35:39;13.80;;;4.75;;
41623;SDS011;27319;50.306;18.926;2023-05-29T20:39:42;8.07;;;3.88;;
41623;SDS011;27319;50.306;18.926;2023-05-29T20:42:46;6.90;;;3.33;;
41623;SDS011;27319;50.306;18.926;2023-05-29T20:45:51;10.57;;;4.30;;
41623;SDS011;27319;50.306;18.926;2023-05-29T20:49:48;7.93;;;3.97;;
41623;SDS011;27319;50.306;18.926;2023-05-29T20:52:53;8.52;;;4.30;;
41623;SDS011;27319;50.306;18.926;2023-05-29T20:56:10;8.25;;;4.28;;
41623;SDS011;27319;50.306;18.926;2023-05-29T20:59:39;9.23;;;3.78;;
41623;SDS011;27319;50.306;18.926;2023-05-29T21:02:41;7.07;;;4.35;;
41623;SDS011;27319;50.306;18.926;2023-05-29T21:05:42;11.40;;;4.80;;
41623;SDS011;27319;50.306;18.926;2023-05-29T21:09:43;6.72;;;4.43;;
41623;SDS011;27319;50.306;18.926;2023-05-29T21:13:44;11.00;;;4.22;;
41623;SDS011;27319;50.306;18.926;2023-05-29T21:17:45;9.88;;;4.07;;
41623;SDS011;27319;50.306;18.926;2023-05-29T21:20:46;10.38;;;3.97;;
41623;SDS011;27319;50.306;18.926;2023-05-29T21:24:49;9.05;;;4.63;;
41623;SDS011;27319;50.306;18.926;2023-05-29T21:27:50;8.50;;;4.15;;
41623;SDS011;27319;50.306;18.926;2023-05-29T21:30:52;8.23;;;4.35;;
41623;SDS011;27319;50.306;18.926;2023-05-29T21:33:52;10.68;;;5.30;;
41623;SDS011;27319;50.306;18.926;2023-05-29T21:36:53;12.13;;;4.68;;
41623;SDS011;27319;50.306;18.926;2023-05-29T21:40:54;7.45;;;4.82;;
41623;SDS011;27319;50.306;18.926;2023-05-29T21:43:56;6.35;;;4.47;;
41623;SDS011;27319;50.306;18.926;2023-05-29T21:47:56;10.00;;;4.65;;
41623;SDS011;27319;50.306;18.926;2023-05-29T21:51:00;12.48;;;5.65;;
41623;SDS011;27319;50.306;18.926;2023-05-29T21:54:01;11.90;;;5.10;;
41623;SDS011;27319;50.306;18.926;2023-05-29T21:57:02;10.70;;;5.53;;
41623;SDS011;27319;50.306;18.926;2023-05-29T22:00:04;11.95;;;5.63;;